sensor_id;sensor_type;location;lat;lon;timestamp;temperature;humidity
8736;DHT22;4404;49.308;12.178;2023-07-13T06:09:22;19.60;99.90
8736;DHT22;4404;49.308;12.178;2023-07-13T06:11:34;20.20;99.90
8736;DHT22;4404;49.308;12.178;2023-07-13T06:13:39;20.20;99.90
8736;DHT22;4404;49.308;12.178;2023-07-13T06:15:48;20.40;99.90
8736;DHT22;4404;49.308;12.178;2023-07-13T06:17:50;20.30;99.90
8736;DHT22;4404;49.308;12.178;2023-07-13T06:19:52;20.30;99.90
8736;DHT22;4404;49.308;12.178;2023-07-13T06:21:54;20.30;99.90
8736;DHT22;4404;49.308;12.178;2023-07-13T06:23:56;20.10;99.90
8736;DHT22;4404;49.308;12.178;2023-07-13T06:26:00;20.10;99.90
8736;DHT22;4404;49.308;12.178;2023-07-13T06:28:06;20.10;99.90
8736;DHT22;4404;49.308;12.178;2023-07-13T06:30:22;20.20;99.90
8736;DHT22;4404;49.308;12.178;2023-07-13T06:32:34;20.40;99.90
8736;DHT22;4404;49.308;12.178;2023-07-13T06:34:45;20.40;99.90
8736;DHT22;4404;49.308;12.178;2023-07-13T06:37:15;20.40;99.90
8736;DHT22;4404;49.308;12.178;2023-07-13T06:39:29;20.60;99.90
8736;DHT22;4404;49.308;12.178;2023-07-13T06:44:12;20.40;99.90
8736;DHT22;4404;49.308;12.178;2023-07-13T06:46:14;20.40;99.90
8736;DHT22;4404;49.308;12.178;2023-07-13T06:48:17;20.40;99.90
8736;DHT22;4404;49.308;12.178;2023-07-13T06:50:21;20.50;99.90
8736;DHT22;4404;49.308;12.178;2023-07-13T06:52:23;20.70;99.90
8736;DHT22;4404;49.308;12.178;2023-07-13T06:54:27;20.50;99.90
8736;DHT22;4404;49.308;12.178;2023-07-13T06:56:34;20.50;99.90
8736;DHT22;4404;49.308;12.178;2023-07-13T06:58:37;20.60;99.90
8736;DHT22;4404;49.308;12.178;2023-07-13T07:00:43;20.70;99.90
8736;DHT22;4404;49.308;12.178;2023-07-13T07:02:45;20.80;99.90
8736;DHT22;4404;49.308;12.178;2023-07-13T07:04:48;20.90;99.90
8736;DHT22;4404;49.308;12.178;2023-07-13T07:06:50;20.90;99.90
8736;DHT22;4404;49.308;12.178;2023-07-13T07:08:52;21.00;99.90
8736;DHT22;4404;49.308;12.178;2023-07-13T07:10:55;21.20;99.90
8736;DHT22;4404;49.308;12.178;2023-07-13T07:12:57;21.30;99.90
8736;DHT22;4404;49.308;12.178;2023-07-13T07:14:59;21.20;99.90
8736;DHT22;4404;49.308;12.178;2023-07-13T07:17:03;21.20;99.90
8736;DHT22;4404;49.308;12.178;2023-07-13T07:19:06;21.40;99.90
8736;DHT22;4404;49.308;12.178;2023-07-13T07:21:08;21.40;99.90
8736;DHT22;4404;49.308;12.178;2023-07-13T07:23:11;21.50;99.90
8736;DHT22;4404;49.308;12.178;2023-07-13T07:25:13;21.70;99.90
8736;DHT22;4404;49.308;12.178;2023-07-13T07:27:19;21.80;99.90
8736;DHT22;4404;49.308;12.178;2023-07-13T07:29:24;22.00;99.90
8736;DHT22;4404;49.308;12.178;2023-07-13T07:31:28;21.80;99.90
8736;DHT22;4404;49.308;12.178;2023-07-13T07:33:34;21.80;99.90
8736;DHT22;4404;49.308;12.178;2023-07-13T07:35:37;21.70;99.90
8736;DHT22;4404;49.308;12.178;2023-07-13T07:37:39;21.80;99.90
8736;DHT22;4404;49.308;12.178;2023-07-13T07:39:42;22.00;99.90
8736;DHT22;4404;49.308;12.178;2023-07-13T07:41:45;22.20;99.90
8736;DHT22;4404;49.308;12.178;2023-07-13T07:43:46;22.40;99.90
8736;DHT22;4404;49.308;12.178;2023-07-13T07:45:49;22.50;99.90
8736;DHT22;4404;49.308;12.178;2023-07-13T07:47:50;22.30;99.90
8736;DHT22;4404;49.308;12.178;2023-07-13T07:49:54;22.30;99.90
8736;DHT22;4404;49.308;12.178;2023-07-13T07:51:56;22.20;99.90
8736;DHT22;4404;49.308;12.178;2023-07-13T07:53:58;22.30;99.90
8736;DHT22;4404;49.308;12.178;2023-07-13T07:56:03;22.40;99.90
8736;DHT22;4404;49.308;12.178;2023-07-13T07:58:06;22.70;99.90
8736;DHT22;4404;49.308;12.178;2023-07-13T08:00:12;22.80;99.90
8736;DHT22;4404;49.308;12.178;2023-07-13T08:02:15;22.90;99.90
8736;DHT22;4404;49.308;12.178;2023-07-13T08:04:20;23.10;99.90
8736;DHT22;4404;49.308;12.178;2023-07-13T08:06:27;23.30;99.90
8736;DHT22;4404;49.308;12.178;2023-07-13T08:08:29;23.20;99.90
8736;DHT22;4404;49.308;12.178;2023-07-13T08:10:32;23.10;99.90
8736;DHT22;4404;49.308;12.178;2023-07-13T08:12:37;22.80;99.90
8736;DHT22;4404;49.308;12.178;2023-07-13T08:14:39;22.70;99.90
8736;DHT22;4404;49.308;12.178;2023-07-13T08:16:44;22.80;99.90
8736;DHT22;4404;49.308;12.178;2023-07-13T08:18:46;23.00;99.90
8736;DHT22;4404;49.308;12.178;2023-07-13T08:20:48;23.10;99.90
8736;DHT22;4404;49.308;12.178;2023-07-13T08:22:53;23.20;98.30
8736;DHT22;4404;49.308;12.178;2023-07-13T08:25:01;23.40;99.70
8736;DHT22;4404;49.308;12.178;2023-07-13T08:27:07;23.30;96.20
8736;DHT22;4404;49.308;12.178;2023-07-13T08:29:10;23.30;94.10
8736;DHT22;4404;49.308;12.178;2023-07-13T08:31:12;23.30;93.60
8736;DHT22;4404;49.308;12.178;2023-07-13T08:33:14;23.30;94.60
8736;DHT22;4404;49.308;12.178;2023-07-13T08:35:16;23.50;97.30
8736;DHT22;4404;49.308;12.178;2023-07-13T08:37:19;23.50;94.90
8736;DHT22;4404;49.308;12.178;2023-07-13T08:39:23;23.10;93.10
8736;DHT22;4404;49.308;12.178;2023-07-13T08:41:25;23.00;93.50
8736;DHT22;4404;49.308;12.178;2023-07-13T08:43:30;23.20;92.20
8736;DHT22;4404;49.308;12.178;2023-07-13T08:45:42;23.40;91.20
8736;DHT22;4404;49.308;12.178;2023-07-13T08:47:50;23.50;91.20
8736;DHT22;4404;49.308;12.178;2023-07-13T08:49:55;23.80;91.50
8736;DHT22;4404;49.308;12.178;2023-07-13T08:52:00;23.70;83.80
8736;DHT22;4404;49.308;12.178;2023-07-13T08:54:12;23.50;86.10
8736;DHT22;4404;49.308;12.178;2023-07-13T08:56:26;23.60;84.60
8736;DHT22;4404;49.308;12.178;2023-07-13T08:58:33;23.50;85.70
8736;DHT22;4404;49.308;12.178;2023-07-13T09:00:40;23.40;87.30
8736;DHT22;4404;49.308;12.178;2023-07-13T09:02:48;23.70;88.50
8736;DHT22;4404;49.308;12.178;2023-07-13T09:04:59;23.70;86.20
8736;DHT22;4404;49.308;12.178;2023-07-13T09:07:13;23.90;86.80
8736;DHT22;4404;49.308;12.178;2023-07-13T09:09:24;24.00;87.40
8736;DHT22;4404;49.308;12.178;2023-07-13T09:11:46;24.00;89.80
8736;DHT22;4404;49.308;12.178;2023-07-13T09:13:58;24.10;88.70
8736;DHT22;4404;49.308;12.178;2023-07-13T09:16:04;24.40;86.30
8736;DHT22;4404;49.308;12.178;2023-07-13T09:18:11;24.60;87.40
8736;DHT22;4404;49.308;12.178;2023-07-13T09:20:21;24.90;87.20
8736;DHT22;4404;49.308;12.178;2023-07-13T09:22:28;24.90;86.20
8736;DHT22;4404;49.308;12.178;2023-07-13T09:24:37;24.30;87.10
8736;DHT22;4404;49.308;12.178;2023-07-13T09:26:45;23.90;86.10
8736;DHT22;4404;49.308;12.178;2023-07-13T09:28:49;24.00;88.60
8736;DHT22;4404;49.308;12.178;2023-07-13T09:30:58;24.00;82.80
8736;DHT22;4404;49.308;12.178;2023-07-13T09:33:04;24.20;84.20
8736;DHT22;4404;49.308;12.178;2023-07-13T09:35:10;24.50;81.50
8736;DHT22;4404;49.308;12.178;2023-07-13T09:37:13;24.50;81.20
8736;DHT22;4404;49.308;12.178;2023-07-13T09:39:18;24.40;82.10
8736;DHT22;4404;49.308;12.178;2023-07-13T09:41:31;24.30;81.10
8736;DHT22;4404;49.308;12.178;2023-07-13T09:44:00;24.80;79.60
8736;DHT22;4404;49.308;12.178;2023-07-13T09:46:03;24.80;80.00
8736;DHT22;4404;49.308;12.178;2023-07-13T09:48:11;24.70;80.30
8736;DHT22;4404;49.308;12.178;2023-07-13T09:50:15;24.50;79.50
8736;DHT22;4404;49.308;12.178;2023-07-13T09:52:18;24.80;80.30
8736;DHT22;4404;49.308;12.178;2023-07-13T09:54:23;25.00;78.50
8736;DHT22;4404;49.308;12.178;2023-07-13T09:56:28;24.80;78.10
8736;DHT22;4404;49.308;12.178;2023-07-13T09:58:31;25.00;79.10
8736;DHT22;4404;49.308;12.178;2023-07-13T10:00:38;25.10;77.60
8736;DHT22;4404;49.308;12.178;2023-07-13T10:02:41;25.20;78.60
8736;DHT22;4404;49.308;12.178;2023-07-13T10:04:46;25.20;81.10
8736;DHT22;4404;49.308;12.178;2023-07-13T10:07:05;25.30;80.10
8736;DHT22;4404;49.308;12.178;2023-07-13T10:09:08;25.30;75.40
8736;DHT22;4404;49.308;12.178;2023-07-13T10:11:14;25.00;72.90
8736;DHT22;4404;49.308;12.178;2023-07-13T10:13:32;25.10;74.30
8736;DHT22;4404;49.308;12.178;2023-07-13T10:15:38;24.80;73.20
8736;DHT22;4404;49.308;12.178;2023-07-13T10:17:42;24.80;72.00
8736;DHT22;4404;49.308;12.178;2023-07-13T10:19:48;24.90;73.40
8736;DHT22;4404;49.308;12.178;2023-07-13T10:21:54;24.80;72.50
8736;DHT22;4404;49.308;12.178;2023-07-13T10:24:05;24.90;74.30
8736;DHT22;4404;49.308;12.178;2023-07-13T10:26:25;24.80;72.80
8736;DHT22;4404;49.308;12.178;2023-07-13T10:28:35;24.50;73.40
8736;DHT22;4404;49.308;12.178;2023-07-13T10:30:55;24.70;74.90
8736;DHT22;4404;49.308;12.178;2023-07-13T10:33:00;25.10;73.90
8736;DHT22;4404;49.308;12.178;2023-07-13T10:35:04;25.00;73.00
8736;DHT22;4404;49.308;12.178;2023-07-13T10:37:16;25.10;73.20
8736;DHT22;4404;49.308;12.178;2023-07-13T10:39:23;24.90;73.50
8736;DHT22;4404;49.308;12.178;2023-07-13T10:41:38;24.80;74.90
8736;DHT22;4404;49.308;12.178;2023-07-13T10:43:42;24.80;74.70
8736;DHT22;4404;49.308;12.178;2023-07-13T10:45:48;24.80;72.60
8736;DHT22;4404;49.308;12.178;2023-07-13T10:48:00;24.70;71.40
8736;DHT22;4404;49.308;12.178;2023-07-13T10:50:05;24.70;72.50
8736;DHT22;4404;49.308;12.178;2023-07-13T10:52:44;24.80;73.20
8736;DHT22;4404;49.308;12.178;2023-07-13T10:54:48;24.60;73.40
8736;DHT22;4404;49.308;12.178;2023-07-13T10:57:07;24.30;72.60
8736;DHT22;4404;49.308;12.178;2023-07-13T10:59:19;24.90;72.60
8736;DHT22;4404;49.308;12.178;2023-07-13T11:01:40;25.00;71.20
8736;DHT22;4404;49.308;12.178;2023-07-13T11:03:54;24.90;72.30
8736;DHT22;4404;49.308;12.178;2023-07-13T11:06:08;25.20;73.80
8736;DHT22;4404;49.308;12.178;2023-07-13T11:08:18;25.20;71.70
8736;DHT22;4404;49.308;12.178;2023-07-13T11:10:46;25.30;73.20
8736;DHT22;4404;49.308;12.178;2023-07-13T11:12:52;25.70;70.00
8736;DHT22;4404;49.308;12.178;2023-07-13T11:15:05;26.00;66.60
8736;DHT22;4404;49.308;12.178;2023-07-13T11:17:35;26.40;65.90
8736;DHT22;4404;49.308;12.178;2023-07-13T11:19:41;26.50;63.10
8736;DHT22;4404;49.308;12.178;2023-07-13T11:22:02;26.60;61.80
8736;DHT22;4404;49.308;12.178;2023-07-13T11:24:18;26.20;57.60
8736;DHT22;4404;49.308;12.178;2023-07-13T11:26:40;26.10;57.90
8736;DHT22;4404;49.308;12.178;2023-07-13T11:28:48;25.70;57.90
8736;DHT22;4404;49.308;12.178;2023-07-13T11:31:12;25.40;58.40
8736;DHT22;4404;49.308;12.178;2023-07-13T11:33:19;25.30;58.20
8736;DHT22;4404;49.308;12.178;2023-07-13T11:35:26;25.60;56.60
8736;DHT22;4404;49.308;12.178;2023-07-13T11:37:29;25.50;55.20
8736;DHT22;4404;49.308;12.178;2023-07-13T11:39:33;25.70;56.10
8736;DHT22;4404;49.308;12.178;2023-07-13T11:41:43;26.00;56.60
8736;DHT22;4404;49.308;12.178;2023-07-13T11:43:51;26.00;56.10
8736;DHT22;4404;49.308;12.178;2023-07-13T11:45:56;26.20;58.40
8736;DHT22;4404;49.308;12.178;2023-07-13T11:47:58;26.30;57.60
8736;DHT22;4404;49.308;12.178;2023-07-13T11:50:02;26.40;53.80
8736;DHT22;4404;49.308;12.178;2023-07-13T11:52:11;26.50;58.20
8736;DHT22;4404;49.308;12.178;2023-07-13T11:54:24;26.50;54.70
8736;DHT22;4404;49.308;12.178;2023-07-13T11:56:28;26.40;53.30
8736;DHT22;4404;49.308;12.178;2023-07-13T11:58:32;26.50;54.70
8736;DHT22;4404;49.308;12.178;2023-07-13T12:00:35;26.80;53.90
8736;DHT22;4404;49.308;12.178;2023-07-13T12:02:40;27.00;55.30
8736;DHT22;4404;49.308;12.178;2023-07-13T12:04:46;27.20;54.70
8736;DHT22;4404;49.308;12.178;2023-07-13T12:06:55;27.30;55.20
8736;DHT22;4404;49.308;12.178;2023-07-13T12:09:02;27.50;53.80
8736;DHT22;4404;49.308;12.178;2023-07-13T12:11:15;27.70;56.50
8736;DHT22;4404;49.308;12.178;2023-07-13T12:13:18;27.90;54.00
8736;DHT22;4404;49.308;12.178;2023-07-13T12:15:22;27.90;54.40
8736;DHT22;4404;49.308;12.178;2023-07-13T12:17:26;27.70;52.30
8736;DHT22;4404;49.308;12.178;2023-07-13T12:19:29;27.90;52.10
8736;DHT22;4404;49.308;12.178;2023-07-13T12:21:32;27.60;50.80
8736;DHT22;4404;49.308;12.178;2023-07-13T12:23:35;27.40;52.00
8736;DHT22;4404;49.308;12.178;2023-07-13T12:25:39;27.40;51.60
8736;DHT22;4404;49.308;12.178;2023-07-13T12:27:41;27.20;52.40
8736;DHT22;4404;49.308;12.178;2023-07-13T12:29:49;27.30;52.40
8736;DHT22;4404;49.308;12.178;2023-07-13T12:31:54;27.50;52.10
8736;DHT22;4404;49.308;12.178;2023-07-13T12:33:58;27.40;51.80
8736;DHT22;4404;49.308;12.178;2023-07-13T12:36:02;27.40;51.60
8736;DHT22;4404;49.308;12.178;2023-07-13T12:38:08;27.70;52.00
8736;DHT22;4404;49.308;12.178;2023-07-13T12:40:14;28.20;51.90
8736;DHT22;4404;49.308;12.178;2023-07-13T12:42:22;28.70;50.20
8736;DHT22;4404;49.308;12.178;2023-07-13T12:44:29;29.30;50.50
8736;DHT22;4404;49.308;12.178;2023-07-13T12:46:32;29.40;48.90
8736;DHT22;4404;49.308;12.178;2023-07-13T12:48:39;29.70;48.80
8736;DHT22;4404;49.308;12.178;2023-07-13T12:50:49;29.70;48.80
8736;DHT22;4404;49.308;12.178;2023-07-13T12:52:53;29.90;46.20
8736;DHT22;4404;49.308;12.178;2023-07-13T12:54:58;29.20;46.40
8736;DHT22;4404;49.308;12.178;2023-07-13T12:57:05;29.00;47.00
8736;DHT22;4404;49.308;12.178;2023-07-13T12:59:17;28.60;46.40
8736;DHT22;4404;49.308;12.178;2023-07-13T13:01:28;28.80;46.70
8736;DHT22;4404;49.308;12.178;2023-07-13T13:03:33;28.90;47.00
8736;DHT22;4404;49.308;12.178;2023-07-13T13:05:36;29.10;46.60
8736;DHT22;4404;49.308;12.178;2023-07-13T13:07:38;28.70;46.10
8736;DHT22;4404;49.308;12.178;2023-07-13T13:09:41;28.70;48.20
8736;DHT22;4404;49.308;12.178;2023-07-13T13:11:45;28.40;45.90
8736;DHT22;4404;49.308;12.178;2023-07-13T13:13:47;28.60;46.30
8736;DHT22;4404;49.308;12.178;2023-07-13T13:15:51;28.10;45.20
8736;DHT22;4404;49.308;12.178;2023-07-13T13:17:54;27.90;45.30
8736;DHT22;4404;49.308;12.178;2023-07-13T13:19:58;27.70;46.70
8736;DHT22;4404;49.308;12.178;2023-07-13T13:22:01;28.10;46.00
8736;DHT22;4404;49.308;12.178;2023-07-13T13:24:11;27.90;45.70
8736;DHT22;4404;49.308;12.178;2023-07-13T13:33:09;28.30;46.70
8736;DHT22;4404;49.308;12.178;2023-07-13T13:35:13;27.90;46.40
8736;DHT22;4404;49.308;12.178;2023-07-13T13:37:22;28.00;46.10
8736;DHT22;4404;49.308;12.178;2023-07-13T13:39:36;27.60;46.90
8736;DHT22;4404;49.308;12.178;2023-07-13T13:47:42;29.10;48.40
8736;DHT22;4404;49.308;12.178;2023-07-13T13:50:14;29.60;45.80
8736;DHT22;4404;49.308;12.178;2023-07-13T13:58:42;28.40;46.00
8736;DHT22;4404;49.308;12.178;2023-07-13T14:00:49;28.00;45.80
8736;DHT22;4404;49.308;12.178;2023-07-13T14:02:51;28.50;46.30
8736;DHT22;4404;49.308;12.178;2023-07-13T14:04:57;28.90;44.80
8736;DHT22;4404;49.308;12.178;2023-07-13T14:07:02;28.90;44.30
8736;DHT22;4404;49.308;12.178;2023-07-13T14:09:09;28.50;45.50
8736;DHT22;4404;49.308;12.178;2023-07-13T14:11:14;28.60;44.40
8736;DHT22;4404;49.308;12.178;2023-07-13T14:13:23;28.60;44.10
8736;DHT22;4404;49.308;12.178;2023-07-13T14:15:29;28.50;44.00
8736;DHT22;4404;49.308;12.178;2023-07-13T14:17:32;27.70;45.40
8736;DHT22;4404;49.308;12.178;2023-07-13T14:19:34;27.90;47.40
8736;DHT22;4404;49.308;12.178;2023-07-13T14:21:36;27.90;45.20
8736;DHT22;4404;49.308;12.178;2023-07-13T14:23:40;27.50;46.70
8736;DHT22;4404;49.308;12.178;2023-07-13T14:25:43;27.70;46.60
8736;DHT22;4404;49.308;12.178;2023-07-13T14:27:49;28.10;47.90
8736;DHT22;4404;49.308;12.178;2023-07-13T14:29:56;27.90;45.30
8736;DHT22;4404;49.308;12.178;2023-07-13T14:31:58;27.80;46.40
8736;DHT22;4404;49.308;12.178;2023-07-13T14:34:00;27.60;45.50
8736;DHT22;4404;49.308;12.178;2023-07-13T14:36:03;27.10;46.40
8736;DHT22;4404;49.308;12.178;2023-07-13T14:38:19;26.80;47.30
8736;DHT22;4404;49.308;12.178;2023-07-13T14:40:29;26.90;49.40
8736;DHT22;4404;49.308;12.178;2023-07-13T14:42:33;27.30;48.80
8736;DHT22;4404;49.308;12.178;2023-07-13T14:44:35;27.70;48.50
8736;DHT22;4404;49.308;12.178;2023-07-13T14:46:37;27.70;47.60
8736;DHT22;4404;49.308;12.178;2023-07-13T14:48:39;27.50;48.80
8736;DHT22;4404;49.308;12.178;2023-07-13T14:50:43;27.70;49.80
8736;DHT22;4404;49.308;12.178;2023-07-13T14:52:46;27.90;49.00
8736;DHT22;4404;49.308;12.178;2023-07-13T14:54:49;27.20;48.70
8736;DHT22;4404;49.308;12.178;2023-07-13T14:56:53;27.40;48.70
8736;DHT22;4404;49.308;12.178;2023-07-13T14:58:56;26.90;48.40
8736;DHT22;4404;49.308;12.178;2023-07-13T15:00:58;27.10;48.50
8736;DHT22;4404;49.308;12.178;2023-07-13T15:03:00;27.10;48.40
8736;DHT22;4404;49.308;12.178;2023-07-13T15:05:11;27.50;48.70
8736;DHT22;4404;49.308;12.178;2023-07-13T15:07:15;27.80;49.40
8736;DHT22;4404;49.308;12.178;2023-07-13T15:09:19;28.00;48.20
8736;DHT22;4404;49.308;12.178;2023-07-13T15:11:21;28.30;47.40
8736;DHT22;4404;49.308;12.178;2023-07-13T15:13:25;28.40;46.80
8736;DHT22;4404;49.308;12.178;2023-07-13T15:15:30;28.00;47.50
8736;DHT22;4404;49.308;12.178;2023-07-13T15:17:36;28.20;47.20
8736;DHT22;4404;49.308;12.178;2023-07-13T15:19:39;27.60;46.90
8736;DHT22;4404;49.308;12.178;2023-07-13T15:21:42;27.40;48.00
8736;DHT22;4404;49.308;12.178;2023-07-13T15:23:44;27.30;49.30
8736;DHT22;4404;49.308;12.178;2023-07-13T15:25:47;27.20;48.70
8736;DHT22;4404;49.308;12.178;2023-07-13T15:27:49;26.90;49.20
8736;DHT22;4404;49.308;12.178;2023-07-13T15:29:53;27.20;48.90
8736;DHT22;4404;49.308;12.178;2023-07-13T15:31:55;27.30;48.40
8736;DHT22;4404;49.308;12.178;2023-07-13T15:33:58;27.30;49.40
8736;DHT22;4404;49.308;12.178;2023-07-13T15:36:01;27.20;50.00
8736;DHT22;4404;49.308;12.178;2023-07-13T15:38:13;27.40;49.50
8736;DHT22;4404;49.308;12.178;2023-07-13T15:40:17;27.40;49.30
8736;DHT22;4404;49.308;12.178;2023-07-13T15:42:23;27.40;49.30
8736;DHT22;4404;49.308;12.178;2023-07-13T15:44:27;27.50;49.30
8736;DHT22;4404;49.308;12.178;2023-07-13T15:46:32;27.40;48.90
8736;DHT22;4404;49.308;12.178;2023-07-13T15:48:34;27.00;48.40
8736;DHT22;4404;49.308;12.178;2023-07-13T15:50:43;26.90;50.40
8736;DHT22;4404;49.308;12.178;2023-07-13T15:52:49;26.80;51.00
8736;DHT22;4404;49.308;12.178;2023-07-13T15:54:52;26.90;51.60
8736;DHT22;4404;49.308;12.178;2023-07-13T15:56:56;27.10;50.40
8736;DHT22;4404;49.308;12.178;2023-07-13T15:59:02;27.00;50.40
8736;DHT22;4404;49.308;12.178;2023-07-13T16:01:05;27.00;50.30
8736;DHT22;4404;49.308;12.178;2023-07-13T16:03:09;26.90;51.30
8736;DHT22;4404;49.308;12.178;2023-07-13T16:05:11;26.70;51.50
8736;DHT22;4404;49.308;12.178;2023-07-13T16:07:14;26.60;51.90
8736;DHT22;4404;49.308;12.178;2023-07-13T16:09:20;26.50;51.60
8736;DHT22;4404;49.308;12.178;2023-07-13T16:11:26;26.40;51.60
8736;DHT22;4404;49.308;12.178;2023-07-13T16:13:29;26.50;52.00
8736;DHT22;4404;49.308;12.178;2023-07-13T16:15:31;26.70;51.60
8736;DHT22;4404;49.308;12.178;2023-07-13T16:17:33;26.50;51.80
8736;DHT22;4404;49.308;12.178;2023-07-13T16:19:37;26.40;51.40
8736;DHT22;4404;49.308;12.178;2023-07-13T16:21:43;26.50;52.10
8736;DHT22;4404;49.308;12.178;2023-07-13T16:23:46;26.60;52.70
8736;DHT22;4404;49.308;12.178;2023-07-13T16:25:48;26.40;51.70
8736;DHT22;4404;49.308;12.178;2023-07-13T16:27:53;26.60;52.90
8736;DHT22;4404;49.308;12.178;2023-07-13T16:30:00;26.80;52.00
8736;DHT22;4404;49.308;12.178;2023-07-13T16:32:14;26.80;51.90
8736;DHT22;4404;49.308;12.178;2023-07-13T16:34:16;26.80;53.20
8736;DHT22;4404;49.308;12.178;2023-07-13T16:36:20;26.80;52.00
8736;DHT22;4404;49.308;12.178;2023-07-13T16:38:22;26.50;51.70
8736;DHT22;4404;49.308;12.178;2023-07-13T16:40:27;26.60;52.40
8736;DHT22;4404;49.308;12.178;2023-07-13T16:42:29;26.60;52.60
8736;DHT22;4404;49.308;12.178;2023-07-13T16:44:32;26.20;52.70
8736;DHT22;4404;49.308;12.178;2023-07-13T16:46:34;26.10;52.50
8736;DHT22;4404;49.308;12.178;2023-07-13T16:48:36;26.00;52.70
8736;DHT22;4404;49.308;12.178;2023-07-13T16:50:41;26.00;53.20
8736;DHT22;4404;49.308;12.178;2023-07-13T16:52:46;26.10;52.40
8736;DHT22;4404;49.308;12.178;2023-07-13T16:54:50;26.00;52.00
8736;DHT22;4404;49.308;12.178;2023-07-13T16:56:52;26.10;53.40
8736;DHT22;4404;49.308;12.178;2023-07-13T16:58:54;26.00;56.70
8736;DHT22;4404;49.308;12.178;2023-07-13T17:04:41;25.70;56.90
8736;DHT22;4404;49.308;12.178;2023-07-13T18:15:15;24.50;57.20
8736;DHT22;4404;49.308;12.178;2023-07-13T18:21:02;24.50;57.80
8736;DHT22;4404;49.308;12.178;2023-07-13T18:49:12;24.50;63.50
